sensor_id;sensor_type;location;lat;lon;timestamp;P1;durP1;ratioP1;P2;durP2;ratioP2
5678;SDS011;2862;52.560;13.566;2023-04-19T00:01:30;22.77;;;2.87;;
5678;SDS011;2862;52.560;13.566;2023-04-19T00:11:36;15.90;;;2.03;;
5678;SDS011;2862;52.560;13.566;2023-04-19T00:21:38;16.67;;;1.73;;
5678;SDS011;2862;52.560;13.566;2023-04-19T00:31:43;16.60;;;1.40;;
5678;SDS011;2862;52.560;13.566;2023-04-19T00:41:46;15.67;;;1.80;;
5678;SDS011;2862;52.560;13.566;2023-04-19T00:51:53;17.97;;;1.83;;
5678;SDS011;2862;52.560;13.566;2023-04-19T01:01:56;17.33;;;1.53;;
5678;SDS011;2862;52.560;13.566;2023-04-19T01:12:04;16.13;;;1.67;;
5678;SDS011;2862;52.560;13.566;2023-04-19T01:22:08;17.13;;;1.30;;
5678;SDS011;2862;52.560;13.566;2023-04-19T01:32:12;16.63;;;1.63;;
5678;SDS011;2862;52.560;13.566;2023-04-19T01:42:15;19.13;;;1.63;;
5678;SDS011;2862;52.560;13.566;2023-04-19T01:52:20;16.80;;;1.43;;
5678;SDS011;2862;52.560;13.566;2023-04-19T02:02:23;13.80;;;1.17;;
5678;SDS011;2862;52.560;13.566;2023-04-19T02:12:29;19.00;;;1.40;;
5678;SDS011;2862;52.560;13.566;2023-04-19T02:22:32;16.17;;;1.67;;
5678;SDS011;2862;52.560;13.566;2023-04-19T02:32:36;16.00;;;1.30;;
5678;SDS011;2862;52.560;13.566;2023-04-19T02:42:40;15.67;;;1.00;;
5678;SDS011;2862;52.560;13.566;2023-04-19T02:52:44;18.40;;;1.47;;
5678;SDS011;2862;52.560;13.566;2023-04-19T03:02:47;17.93;;;2.30;;
5678;SDS011;2862;52.560;13.566;2023-04-19T03:12:52;17.40;;;1.53;;
5678;SDS011;2862;52.560;13.566;2023-04-19T03:22:55;14.87;;;0.90;;
5678;SDS011;2862;52.560;13.566;2023-04-19T03:33:01;17.37;;;0.97;;
5678;SDS011;2862;52.560;13.566;2023-04-19T03:43:04;17.07;;;2.60;;
5678;SDS011;2862;52.560;13.566;2023-04-19T03:53:10;14.30;;;0.90;;
5678;SDS011;2862;52.560;13.566;2023-04-19T04:03:13;15.00;;;1.27;;
5678;SDS011;2862;52.560;13.566;2023-04-19T04:13:17;18.30;;;1.93;;
5678;SDS011;2862;52.560;13.566;2023-04-19T04:23:35;17.73;;;1.40;;
5678;SDS011;2862;52.560;13.566;2023-04-19T04:33:45;17.13;;;1.60;;
5678;SDS011;2862;52.560;13.566;2023-04-19T04:43:52;16.70;;;0.93;;
5678;SDS011;2862;52.560;13.566;2023-04-19T04:54:07;19.90;;;1.63;;
5678;SDS011;2862;52.560;13.566;2023-04-19T05:04:11;19.13;;;1.63;;
5678;SDS011;2862;52.560;13.566;2023-04-19T05:14:15;16.40;;;1.47;;
5678;SDS011;2862;52.560;13.566;2023-04-19T05:24:19;17.00;;;2.10;;
5678;SDS011;2862;52.560;13.566;2023-04-19T05:34:25;22.10;;;5.10;;
5678;SDS011;2862;52.560;13.566;2023-04-19T05:44:31;19.43;;;2.57;;
5678;SDS011;2862;52.560;13.566;2023-04-19T05:54:35;14.70;;;1.10;;
5678;SDS011;2862;52.560;13.566;2023-04-19T06:04:39;16.37;;;1.20;;
5678;SDS011;2862;52.560;13.566;2023-04-19T06:14:45;15.60;;;0.77;;
5678;SDS011;2862;52.560;13.566;2023-04-19T06:24:49;17.03;;;0.70;;
5678;SDS011;2862;52.560;13.566;2023-04-19T06:34:54;24.27;;;6.97;;
5678;SDS011;2862;52.560;13.566;2023-04-19T06:44:57;26.40;;;5.30;;
5678;SDS011;2862;52.560;13.566;2023-04-19T06:55:02;20.60;;;4.00;;
5678;SDS011;2862;52.560;13.566;2023-04-19T07:05:05;17.27;;;1.07;;
5678;SDS011;2862;52.560;13.566;2023-04-19T07:15:11;15.93;;;1.00;;
5678;SDS011;2862;52.560;13.566;2023-04-19T07:25:14;21.30;;;1.20;;
5678;SDS011;2862;52.560;13.566;2023-04-19T07:35:19;22.33;;;1.50;;
5678;SDS011;2862;52.560;13.566;2023-04-19T07:45:22;22.00;;;3.70;;
5678;SDS011;2862;52.560;13.566;2023-04-19T07:55:26;21.77;;;1.10;;
5678;SDS011;2862;52.560;13.566;2023-04-19T08:05:29;24.40;;;3.20;;
5678;SDS011;2862;52.560;13.566;2023-04-19T08:15:33;17.90;;;1.03;;
5678;SDS011;2862;52.560;13.566;2023-04-19T08:25:57;18.60;;;1.30;;
5678;SDS011;2862;52.560;13.566;2023-04-19T08:36:01;19.37;;;2.30;;
5678;SDS011;2862;52.560;13.566;2023-04-19T08:46:04;21.63;;;2.30;;
5678;SDS011;2862;52.560;13.566;2023-04-19T08:56:10;17.30;;;1.30;;
5678;SDS011;2862;52.560;13.566;2023-04-19T09:06:18;19.47;;;1.20;;
5678;SDS011;2862;52.560;13.566;2023-04-19T09:16:25;20.97;;;2.80;;
5678;SDS011;2862;52.560;13.566;2023-04-19T09:26:28;17.67;;;1.27;;
5678;SDS011;2862;52.560;13.566;2023-04-19T09:36:32;16.20;;;1.33;;
5678;SDS011;2862;52.560;13.566;2023-04-19T09:46:36;18.70;;;2.40;;
5678;SDS011;2862;52.560;13.566;2023-04-19T09:56:40;20.13;;;1.83;;
5678;SDS011;2862;52.560;13.566;2023-04-19T10:06:43;19.63;;;1.33;;
5678;SDS011;2862;52.560;13.566;2023-04-19T10:16:53;20.80;;;1.60;;
5678;SDS011;2862;52.560;13.566;2023-04-19T10:27:07;18.70;;;1.33;;
5678;SDS011;2862;52.560;13.566;2023-04-19T10:37:13;17.87;;;1.30;;
5678;SDS011;2862;52.560;13.566;2023-04-19T10:58:03;18.70;;;1.93;;
5678;SDS011;2862;52.560;13.566;2023-04-19T11:08:07;19.80;;;1.80;;
5678;SDS011;2862;52.560;13.566;2023-04-19T11:18:18;20.10;;;2.03;;
5678;SDS011;2862;52.560;13.566;2023-04-19T11:28:20;18.00;;;1.33;;
5678;SDS011;2862;52.560;13.566;2023-04-19T11:38:27;16.00;;;1.17;;
5678;SDS011;2862;52.560;13.566;2023-04-19T11:48:30;15.40;;;0.90;;
5678;SDS011;2862;52.560;13.566;2023-04-19T11:58:37;22.00;;;2.60;;
5678;SDS011;2862;52.560;13.566;2023-04-19T12:08:45;16.57;;;1.10;;
5678;SDS011;2862;52.560;13.566;2023-04-19T12:18:52;18.73;;;1.00;;
5678;SDS011;2862;52.560;13.566;2023-04-19T12:28:56;21.73;;;1.83;;
5678;SDS011;2862;52.560;13.566;2023-04-19T12:39:02;18.30;;;1.83;;
5678;SDS011;2862;52.560;13.566;2023-04-19T12:49:06;21.73;;;4.37;;
5678;SDS011;2862;52.560;13.566;2023-04-19T12:59:10;20.77;;;2.57;;
5678;SDS011;2862;52.560;13.566;2023-04-19T13:09:13;24.60;;;3.17;;
5678;SDS011;2862;52.560;13.566;2023-04-19T13:19:19;20.57;;;1.97;;
5678;SDS011;2862;52.560;13.566;2023-04-19T13:29:22;25.90;;;2.13;;
5678;SDS011;2862;52.560;13.566;2023-04-19T13:39:27;22.00;;;2.00;;
5678;SDS011;2862;52.560;13.566;2023-04-19T13:49:30;21.73;;;2.20;;
5678;SDS011;2862;52.560;13.566;2023-04-19T13:59:34;22.00;;;1.73;;
5678;SDS011;2862;52.560;13.566;2023-04-19T14:09:38;21.43;;;2.40;;
5678;SDS011;2862;52.560;13.566;2023-04-19T14:19:45;21.50;;;1.63;;
5678;SDS011;2862;52.560;13.566;2023-04-19T14:29:48;22.43;;;3.13;;
5678;SDS011;2862;52.560;13.566;2023-04-19T14:39:52;21.50;;;2.93;;
5678;SDS011;2862;52.560;13.566;2023-04-19T14:49:56;20.40;;;2.90;;
5678;SDS011;2862;52.560;13.566;2023-04-19T15:00:00;25.83;;;3.83;;
5678;SDS011;2862;52.560;13.566;2023-04-19T15:10:04;20.50;;;3.67;;
5678;SDS011;2862;52.560;13.566;2023-04-19T15:20:10;26.53;;;4.17;;
5678;SDS011;2862;52.560;13.566;2023-04-19T15:30:13;21.07;;;5.00;;
5678;SDS011;2862;52.560;13.566;2023-04-19T15:40:17;25.43;;;4.67;;
5678;SDS011;2862;52.560;13.566;2023-04-19T15:50:20;21.50;;;4.37;;
5678;SDS011;2862;52.560;13.566;2023-04-19T16:00:25;24.67;;;4.10;;
5678;SDS011;2862;52.560;13.566;2023-04-19T16:10:28;21.77;;;3.70;;
5678;SDS011;2862;52.560;13.566;2023-04-19T16:20:33;25.50;;;4.67;;
5678;SDS011;2862;52.560;13.566;2023-04-19T16:30:36;23.40;;;4.90;;
5678;SDS011;2862;52.560;13.566;2023-04-19T16:40:41;33.73;;;7.90;;
5678;SDS011;2862;52.560;13.566;2023-04-19T16:50:47;24.90;;;4.40;;
5678;SDS011;2862;52.560;13.566;2023-04-19T17:00:54;29.30;;;6.50;;
5678;SDS011;2862;52.560;13.566;2023-04-19T17:10:58;23.97;;;4.90;;
5678;SDS011;2862;52.560;13.566;2023-04-19T17:21:02;21.03;;;4.23;;
5678;SDS011;2862;52.560;13.566;2023-04-19T17:31:05;21.87;;;4.97;;
5678;SDS011;2862;52.560;13.566;2023-04-19T17:41:10;25.20;;;7.50;;
5678;SDS011;2862;52.560;13.566;2023-04-19T17:51:16;23.87;;;5.20;;
5678;SDS011;2862;52.560;13.566;2023-04-19T18:01:21;16.63;;;3.33;;
5678;SDS011;2862;52.560;13.566;2023-04-19T18:11:24;23.03;;;5.70;;
5678;SDS011;2862;52.560;13.566;2023-04-19T18:21:30;24.03;;;6.30;;
5678;SDS011;2862;52.560;13.566;2023-04-19T18:31:33;30.97;;;6.90;;
5678;SDS011;2862;52.560;13.566;2023-04-19T18:41:38;23.10;;;6.77;;
5678;SDS011;2862;52.560;13.566;2023-04-19T18:51:41;31.63;;;7.70;;
5678;SDS011;2862;52.560;13.566;2023-04-19T19:01:45;27.13;;;8.67;;
5678;SDS011;2862;52.560;13.566;2023-04-19T19:11:48;25.30;;;9.10;;
5678;SDS011;2862;52.560;13.566;2023-04-19T19:21:57;36.27;;;9.67;;
5678;SDS011;2862;52.560;13.566;2023-04-19T19:32:00;38.20;;;12.20;;
5678;SDS011;2862;52.560;13.566;2023-04-19T19:42:06;33.17;;;12.50;;
5678;SDS011;2862;52.560;13.566;2023-04-19T19:52:09;33.87;;;13.07;;
5678;SDS011;2862;52.560;13.566;2023-04-19T20:02:13;37.10;;;14.90;;
5678;SDS011;2862;52.560;13.566;2023-04-19T20:12:17;34.03;;;12.70;;
5678;SDS011;2862;52.560;13.566;2023-04-19T20:22:21;31.80;;;12.93;;
5678;SDS011;2862;52.560;13.566;2023-04-19T20:32:24;27.50;;;10.63;;
5678;SDS011;2862;52.560;13.566;2023-04-19T20:42:28;36.17;;;10.60;;
5678;SDS011;2862;52.560;13.566;2023-04-19T20:52:32;26.37;;;9.20;;
5678;SDS011;2862;52.560;13.566;2023-04-19T21:02:37;24.87;;;9.13;;
5678;SDS011;2862;52.560;13.566;2023-04-19T21:12:40;27.80;;;9.50;;
5678;SDS011;2862;52.560;13.566;2023-04-19T21:22:45;24.00;;;9.53;;
5678;SDS011;2862;52.560;13.566;2023-04-19T21:32:49;23.33;;;9.00;;
5678;SDS011;2862;52.560;13.566;2023-04-19T21:42:54;27.10;;;9.57;;
5678;SDS011;2862;52.560;13.566;2023-04-19T21:52:58;28.63;;;11.07;;
5678;SDS011;2862;52.560;13.566;2023-04-19T22:03:03;27.07;;;8.30;;
5678;SDS011;2862;52.560;13.566;2023-04-19T22:13:06;21.83;;;8.20;;
5678;SDS011;2862;52.560;13.566;2023-04-19T22:23:11;22.67;;;7.73;;
5678;SDS011;2862;52.560;13.566;2023-04-19T22:33:14;24.27;;;7.20;;
5678;SDS011;2862;52.560;13.566;2023-04-19T22:43:18;22.10;;;6.10;;
5678;SDS011;2862;52.560;13.566;2023-04-19T22:53:23;21.10;;;6.30;;
5678;SDS011;2862;52.560;13.566;2023-04-19T23:03:27;21.33;;;6.10;;
5678;SDS011;2862;52.560;13.566;2023-04-19T23:13:30;23.83;;;7.37;;
5678;SDS011;2862;52.560;13.566;2023-04-19T23:23:35;22.30;;;7.30;;
5678;SDS011;2862;52.560;13.566;2023-04-19T23:33:38;21.63;;;6.50;;
5678;SDS011;2862;52.560;13.566;2023-04-19T23:43:45;22.77;;;6.40;;
5678;SDS011;2862;52.560;13.566;2023-04-19T23:53:48;19.50;;;6.33;;
